Time;durP1;ratioP1;P1;durP2;ratioP2;P2;SDS_P1;SDS_P2;PMS_P1;PMS_P2;Temp;Humidity;BMP_temperature;BMP_pressure;BME280_temperature;BME280_humidity;BME280_pressure;Samples;Min_cycle;Max_cycle;Signal;HPM_P1;HPM_P2
2023/08/16 00:00:50;;;;;;;14.20;5.18;;;;;;;17.90;100.00;101733.03;5096010;28;20110;-82
2023/08/16 00:03:15;;;;;;;17.98;5.25;;;;;;;17.92;100.00;101733.72;5096343;28;20114;-82
2023/08/16 00:05:42;;;;;;;13.25;4.82;;;;;;;17.92;100.00;101728.28;5094998;28;20020;-82
2023/08/16 00:08:07;;;;;;;20.73;5.40;;;;;;;17.91;100.00;101740.19;5100849;28;20471;-82
2023/08/16 00:10:33;;;;;;;17.20;5.50;;;;;;;17.90;100.00;101739.31;5112419;28;20038;-82
2023/08/16 00:12:58;;;;;;;14.20;4.55;;;;;;;17.88;100.00;101743.13;5096014;28;20369;-80
2023/08/16 00:15:28;;;;;;;14.10;4.60;;;;;;;17.86;100.00;101737.81;5095285;28;20019;-81
2023/08/16 00:17:53;;;;;;;;;;;;;;;17.91;100.00;101737.47;5106198;28;20183;-82
2023/08/16 00:20:26;;;;;;;16.65;4.82;;;;;;;17.83;100.00;101740.81;5099730;27;20331;-81
2023/08/16 00:22:52;;;;;;;17.10;5.45;;;;;;;17.80;100.00;101739.25;5095809;28;20028;-82
2023/08/16 00:25:18;;;;;;;15.60;5.25;;;;;;;17.76;100.00;101735.09;5113225;28;20042;-82
2023/08/16 00:27:43;;;;;;;17.70;5.63;;;;;;;17.72;100.00;101736.38;5089805;28;20467;-81
2023/08/16 00:30:09;;;;;;;18.17;5.70;;;;;;;17.70;100.00;101734.78;5107442;28;20038;-82
2023/08/16 00:32:35;;;;;;;16.95;5.68;;;;;;;17.65;100.00;101743.34;5094700;28;20035;-82
2023/08/16 00:35:00;;;;;;;17.25;6.30;;;;;;;17.62;100.00;101738.19;5112838;28;20388;-81
2023/08/16 00:37:26;;;;;;;17.73;5.85;;;;;;;17.59;100.00;101738.47;5106780;28;20030;-82
2023/08/16 00:39:51;;;;;;;18.67;5.35;;;;;;;17.51;100.00;101743.72;5095650;28;20027;-82
2023/08/16 00:42:16;;;;;;;17.02;5.85;;;;;;;17.45;100.00;101743.28;5113874;28;20076;-82
2023/08/16 00:44:42;;;;;;;18.77;6.50;;;;;;;17.39;100.00;101743.78;5088024;28;20015;-81
2023/08/16 00:47:07;;;;;;;18.48;7.03;;;;;;;17.35;100.00;101753.22;5089769;28;20047;-82
2023/08/16 00:49:33;;;;;;;17.60;6.05;;;;;;;17.31;100.00;101751.78;5092158;28;20050;-78
2023/08/16 00:52:01;;;;;;;17.30;6.00;;;;;;;17.25;100.00;101753.16;5113576;28;20110;-78
2023/08/16 00:54:28;;;;;;;16.38;6.68;;;;;;;17.22;100.00;101760.72;5108784;28;20436;-78
2023/08/16 00:56:54;;;;;;;17.75;6.45;;;;;;;17.16;100.00;101761.25;5105138;28;20120;-78
2023/08/16 00:59:20;;;;;;;26.98;6.40;;;;;;;17.13;100.00;101759.69;5093544;28;20118;-78
2023/08/16 01:01:46;;;;;;;17.38;6.47;;;;;;;17.08;100.00;101757.34;5106433;28;20145;-78
2023/08/16 01:04:12;;;;;;;18.48;6.47;;;;;;;17.04;100.00;101764.06;5085858;28;20538;-78
2023/08/16 01:06:38;;;;;;;18.30;7.07;;;;;;;17.01;100.00;101767.00;5083156;28;20042;-78
2023/08/16 01:09:03;;;;;;;18.92;7.22;;;;;;;16.99;100.00;101769.00;5080556;28;20027;-81
2023/08/16 01:11:35;;;;;;;22.08;7.30;;;;;;;16.98;100.00;101772.72;5085027;28;20062;-81
2023/08/16 01:14:16;;;;;;;15.25;6.03;;;;;;;17.01;100.00;101772.44;5099946;28;20494;-82
2023/08/16 01:16:44;;;;;;;21.08;6.53;;;;;;;17.02;100.00;101771.47;5093577;28;20042;-81
2023/08/16 01:19:10;;;;;;;18.98;6.85;;;;;;;17.02;100.00;101766.03;5104796;28;20047;-81
2023/08/16 01:21:46;;;;;;;17.25;6.03;;;;;;;17.03;100.00;101775.03;5111623;28;20024;-81
2023/08/16 01:24:26;;;;;;;18.88;5.63;;;;;;;17.01;100.00;101771.59;5092673;28;20115;-81
2023/08/16 01:26:53;;;;;;;16.63;5.80;;;;;;;17.00;100.00;101780.72;5108994;27;20024;-82
2023/08/16 01:29:19;;;;;;;16.67;6.03;;;;;;;17.03;100.00;101780.47;5101004;28;20039;-82
2023/08/16 01:31:45;;;;;;;17.77;6.43;;;;;;;17.04;100.00;101780.34;5112616;28;20527;-81
2023/08/16 01:34:11;;;;;;;22.27;6.60;;;;;;;17.05;100.00;101782.06;5089310;28;20032;-82
2023/08/16 01:36:36;;;;;;;16.50;6.07;;;;;;;17.06;100.00;101786.50;5082597;28;20141;-81
2023/08/16 01:39:01;;;;;;;15.90;5.63;;;;;;;17.04;100.00;101788.50;5099688;28;20116;-81
2023/08/16 01:41:38;;;;;;;15.88;5.72;;;;;;;17.02;100.00;101792.34;5085115;28;20050;-82
2023/08/16 01:44:07;;;;;;;17.23;5.90;;;;;;;17.00;100.00;101792.47;5085518;28;20035;-82
2023/08/16 01:46:33;;;;;;;17.53;5.97;;;;;;;17.00;100.00;101787.03;5104561;28;20071;-82
2023/08/16 01:49:00;;;;;;;16.52;6.30;;;;;;;17.00;100.00;101776.19;5095719;28;20290;-81
2023/08/16 01:51:25;;;;;;;15.05;5.63;;;;;;;17.00;100.00;101781.59;5111279;27;20510;-82
2023/08/16 01:53:54;;;;;;;16.48;5.72;;;;;;;16.98;100.00;101782.72;5093726;28;20122;-82
2023/08/16 01:56:21;;;;;;;16.10;5.82;;;;;;;16.96;100.00;101782.00;5097922;28;20032;-81
2023/08/16 01:58:47;;;;;;;18.13;6.45;;;;;;;16.91;100.00;101783.25;5088839;28;20037;-82
2023/08/16 02:01:13;;;;;;;16.15;6.40;;;;;;;16.88;100.00;101788.06;5098593;28;20028;-81
2023/08/16 02:03:39;;;;;;;17.05;6.07;;;;;;;16.87;100.00;101786.34;5084958;28;20124;-81
2023/08/16 02:06:04;;;;;;;18.88;6.72;;;;;;;16.87;100.00;101780.91;5085301;28;20051;-81
2023/08/16 02:08:29;;;;;;;15.88;6.20;;;;;;;16.86;100.00;101787.31;5110172;28;20201;-82
2023/08/16 02:10:55;;;;;;;16.48;5.53;;;;;;;16.85;100.00;101782.88;5088183;28;20462;-82
2023/08/16 02:13:21;;;;;;;17.35;6.53;;;;;;;16.84;100.00;101789.28;5091515;28;20134;-82
2023/08/16 02:15:46;;;;;;;19.48;6.85;;;;;;;16.81;100.00;101794.97;5085817;28;20030;-81
2023/08/16 02:18:12;;;;;;;16.45;6.80;;;;;;;16.78;100.00;101791.53;5106207;28;20034;-81
2023/08/16 02:20:38;;;;;;;18.50;6.47;;;;;;;16.75;100.00;101799.06;5081310;28;20030;-81
2023/08/16 02:23:05;;;;;;;18.13;6.90;;;;;;;16.73;100.00;101801.91;5099973;28;20514;-81
2023/08/16 02:25:30;;;;;;;17.55;6.55;;;;;;;16.71;100.00;101793.06;5080666;28;20085;-82
2023/08/16 02:27:55;;;;;;;18.20;7.00;;;;;;;16.72;100.00;101794.78;5080279;28;20118;-80
2023/08/16 02:30:22;;;;;;;17.67;6.82;;;;;;;16.72;100.00;101794.78;5081698;28;20142;-80
2023/08/16 02:32:47;;;;;;;19.40;7.00;;;;;;;16.72;100.00;101789.34;5079983;28;20111;-81
2023/08/16 02:35:13;;;;;;;20.70;6.70;;;;;;;16.74;100.00;101789.22;5103476;28;20040;-81
2023/08/16 02:37:41;;;;;;;17.23;6.65;;;;;;;16.74;100.00;101792.78;5088031;27;20505;-78
2023/08/16 02:40:07;;;;;;;19.90;7.40;;;;;;;16.74;100.00;101798.22;5082543;28;20034;-78
2023/08/16 02:42:33;;;;;;;17.73;6.50;;;;;;;16.74;100.00;101783.78;5100602;28;20422;-78
2023/08/16 02:44:58;;;;;;;19.33;7.03;;;;;;;16.74;100.00;101781.94;5085165;28;20085;-78
2023/08/16 02:47:23;;;;;;;21.00;7.45;;;;;;;16.74;100.00;101776.50;5110693;28;20501;-78
2023/08/16 02:49:49;;;;;;;20.80;7.43;;;;;;;16.74;100.00;101770.22;5087690;28;20076;-78
2023/08/16 02:52:14;;;;;;;19.90;7.93;;;;;;;16.74;100.00;101765.66;5088583;28;20051;-78
2023/08/16 02:54:40;;;;;;;20.92;8.35;;;;;;;16.71;100.00;101776.75;5090252;28;20030;-78
2023/08/16 02:57:05;;;;;;;18.85;7.47;;;;;;;16.69;100.00;101778.75;5092577;28;20058;-78
2023/08/16 02:59:39;;;;;;;19.33;8.30;;;;;;;16.68;100.00;101784.31;5089598;28;20015;-78
2023/08/16 03:02:05;;;;;;;19.02;7.88;;;;;;;16.66;100.00;101781.75;5085881;28;20369;-78
2023/08/16 03:04:30;;;;;;;18.63;6.95;;;;;;;16.67;100.00;101786.16;5097363;28;20035;-78
2023/08/16 03:06:55;;;;;;;20.02;7.93;;;;;;;16.68;100.00;101782.47;5101171;28;20028;-78
2023/08/16 03:09:21;;;;;;;18.77;7.72;;;;;;;16.67;100.00;101788.00;5090899;28;20023;-78
2023/08/16 03:11:48;;;;;;;19.77;7.75;;;;;;;16.68;100.00;101781.59;5088498;28;20019;-78
2023/08/16 03:14:13;;;;;;;19.92;8.50;;;;;;;16.68;100.00;101787.88;5103646;28;20023;-78
2023/08/16 03:16:39;;;;;;;19.55;7.85;;;;;;;16.68;100.00;101784.31;5106060;28;20026;-78
2023/08/16 03:19:04;;;;;;;22.67;8.75;;;;;;;16.69;100.00;101786.91;5101084;28;20024;-78
2023/08/16 03:21:30;;;;;;;21.50;8.77;;;;;;;16.70;100.00;101785.88;5103854;28;20036;-78
2023/08/16 03:23:55;;;;;;;19.40;8.35;;;;;;;16.71;100.00;101787.63;5098473;28;20023;-78
2023/08/16 03:26:21;;;;;;;20.80;8.35;;;;;;;16.69;100.00;101784.19;5082542;28;20030;-78
2023/08/16 03:28:46;;;;;;;22.50;8.00;;;;;;;16.70;100.00;101785.88;5080478;28;20227;-78
2023/08/16 03:31:11;;;;;;;19.55;8.10;;;;;;;16.71;100.00;101784.91;5084281;28;20050;-78
2023/08/16 03:33:37;;;;;;;19.95;7.90;;;;;;;16.71;100.00;101778.63;5084000;28;20024;-78
2023/08/16 03:36:02;;;;;;;21.77;9.35;;;;;;;16.72;100.00;101783.94;5103626;28;20119;-78
2023/08/16 03:38:28;;;;;;;21.13;8.57;;;;;;;16.69;100.00;101786.91;5106939;28;20023;-78
2023/08/16 03:40:54;;;;;;;20.67;9.20;;;;;;;16.66;100.00;101795.31;5085616;28;20475;-78
2023/08/16 03:43:19;;;;;;;24.15;9.30;;;;;;;16.65;100.00;101792.69;5105215;28;20023;-78
2023/08/16 03:45:44;;;;;;;20.48;8.48;;;;;;;16.65;100.00;101795.41;5082099;28;20076;-78
2023/08/16 03:48:10;;;;;;;21.60;9.25;;;;;;;16.63;100.00;101789.25;5085015;28;20036;-78
2023/08/16 03:50:35;;;;;;;21.98;9.40;;;;;;;16.59;100.00;101791.38;5082810;28;20032;-78
2023/08/16 03:53:00;;;;;;;23.92;9.95;;;;;;;16.57;100.00;101798.78;5089119;28;20024;-78
2023/08/16 03:55:25;;;;;;;22.48;9.48;;;;;;;16.54;100.00;101799.03;5084968;28;20020;-78
2023/08/16 03:57:51;;;;;;;21.80;10.00;;;;;;;16.50;100.00;101806.59;5108771;28;20108;-78
2023/08/16 04:00:16;;;;;;;24.58;10.80;;;;;;;16.43;100.00;101803.50;5090783;28;20165;-78
2023/08/16 04:02:41;;;;;;;20.33;9.77;;;;;;;16.39;100.00;101815.59;5105382;28;20037;-78
2023/08/16 04:05:12;;;;;;;22.33;10.07;;;;;;;16.33;100.00;101818.81;5089066;28;20386;-78
2023/08/16 04:07:38;;;;;;;22.95;9.50;;;;;;;16.28;100.00;101815.63;5113063;28;20042;-78
2023/08/16 04:10:04;;;;;;;21.77;10.25;;;;;;;16.23;100.00;101809.72;5108666;28;20023;-78
2023/08/16 04:12:29;;;;;;;21.98;9.90;;;;;;;16.21;100.00;101807.13;5087449;28;20034;-78
2023/08/16 04:14:54;;;;;;;21.40;9.90;;;;;;;16.18;100.00;101814.66;5089419;28;20076;-77
2023/08/16 04:17:20;;;;;;;22.58;10.15;;;;;;;16.14;100.00;101814.03;5093291;28;20023;-78
2023/08/16 04:19:45;;;;;;;20.20;9.23;;;;;;;16.11;100.00;101816.16;5110966;28;20103;-78
2023/08/16 04:22:10;;;;;;;24.27;9.30;;;;;;;16.08;100.00;101818.13;5113077;28;20465;-78
2023/08/16 04:24:35;;;;;;;21.27;9.60;;;;;;;16.07;100.00;101829.09;5102928;28;20498;-78
2023/08/16 04:27:01;;;;;;;23.05;9.77;;;;;;;16.05;100.00;101825.66;5109469;28;20157;-78
2023/08/16 04:29:26;;;;;;;21.08;9.07;;;;;;;16.02;100.00;101824.03;5108066;28;20031;-78
2023/08/16 04:31:51;;;;;;;22.13;9.68;;;;;;;16.02;100.00;101824.03;5107305;28;20031;-78
2023/08/16 04:34:17;;;;;;;21.40;9.82;;;;;;;16.02;100.00;101813.19;5090005;28;20536;-78
2023/08/16 04:36:42;;;;;;;20.73;9.70;;;;;;;16.04;100.00;101821.22;5112214;28;20046;-78
2023/08/16 04:39:08;;;;;;;20.10;9.23;;;;;;;16.06;100.00;101811.97;5091816;28;20119;-78
2023/08/16 04:41:33;;;;;;;24.33;9.48;;;;;;;16.11;100.00;101813.44;5112148;28;20047;-78
2023/08/16 04:43:59;;;;;;;19.55;8.85;;;;;;;16.13;100.00;101809.59;5088902;28;20663;-78
2023/08/16 04:46:24;;;;;;;22.90;9.85;;;;;;;16.13;100.00;101804.19;5112872;28;20027;-78
2023/08/16 04:48:49;;;;;;;20.95;10.25;;;;;;;16.15;100.00;101812.19;5111151;28;20067;-78
2023/08/16 04:51:15;;;;;;;21.30;9.25;;;;;;;16.15;100.00;101809.47;5107034;28;20115;-78
2023/08/16 04:53:40;;;;;;;20.52;9.20;;;;;;;16.16;100.00;101820.19;5088480;28;20031;-78
2023/08/16 04:56:05;;;;;;;20.52;9.45;;;;;;;16.15;100.00;101817.63;5112597;27;20545;-78
2023/08/16 04:58:30;;;;;;;22.92;9.98;;;;;;;16.14;100.00;101815.91;5089056;28;20058;-78
2023/08/16 05:00:56;;;;;;;21.30;9.18;;;;;;;16.12;100.00;101820.56;5086060;28;20043;-78
2023/08/16 05:03:21;;;;;;;24.15;9.57;;;;;;;16.10;100.00;101828.84;5108117;28;20036;-78
2023/08/16 05:05:46;;;;;;;21.08;9.93;;;;;;;16.09;100.00;101827.09;5108238;28;20024;-78
2023/08/16 05:08:12;;;;;;;21.75;10.05;;;;;;;16.08;100.00;101828.97;5104029;28;20027;-78
2023/08/16 05:10:37;;;;;;;20.27;9.02;;;;;;;16.08;100.00;101825.41;5084970;28;20027;-78
2023/08/16 05:13:03;;;;;;;21.95;9.80;;;;;;;16.07;100.00;101831.81;5091756;28;20490;-78
2023/08/16 05:15:28;;;;;;;26.38;10.05;;;;;;;16.05;100.00;101831.94;5085033;28;20027;-78
2023/08/16 05:17:53;;;;;;;23.55;11.05;;;;;;;16.03;100.00;101835.75;5086768;27;20015;-78
2023/08/16 05:20:18;;;;;;;24.10;10.00;;;;;;;16.01;100.00;101837.72;5094460;28;20703;-78
2023/08/16 05:22:44;;;;;;;20.70;10.18;;;;;;;16.00;100.00;101842.31;5087782;28;20061;-78
2023/08/16 05:25:09;;;;;;;23.75;10.13;;;;;;;16.02;100.00;101848.44;5111046;28;20104;-78
2023/08/16 05:27:34;;;;;;;21.08;9.57;;;;;;;16.04;100.00;101846.47;5091413;28;20118;-78
2023/08/16 05:30:00;;;;;;;24.13;11.18;;;;;;;16.05;100.00;101842.78;5101502;28;20701;-78
2023/08/16 05:32:25;;;;;;;22.98;11.23;;;;;;;16.09;100.00;101840.66;5089643;28;20153;-78
2023/08/16 05:34:53;;;;;;;22.45;10.07;;;;;;;16.11;100.00;101849.56;5088606;28;20406;-78
2023/08/16 05:37:19;;;;;;;21.10;10.25;;;;;;;16.15;100.00;101845.63;5107832;28;20058;-78
2023/08/16 05:39:44;;;;;;;22.75;11.00;;;;;;;16.19;100.00;101847.09;5090766;28;20455;-78
2023/08/16 05:42:09;;;;;;;23.88;9.82;;;;;;;16.23;100.00;101847.69;5091878;28;20059;-78
2023/08/16 05:44:35;;;;;;;20.17;9.52;;;;;;;16.27;100.00;101846.47;5088869;28;20031;-78
2023/08/16 05:47:00;;;;;;;21.50;8.75;;;;;;;16.29;100.00;101847.19;5103124;28;20023;-78
2023/08/16 05:49:25;;;;;;;22.77;9.88;;;;;;;16.30;100.00;101865.19;5095464;28;20024;-78
2023/08/16 05:51:51;;;;;;;22.27;9.38;;;;;;;16.34;100.00;101860.38;5087146;28;20080;-78
2023/08/16 05:54:16;;;;;;;21.08;9.27;;;;;;;16.35;100.00;101865.66;5102690;27;20184;-78
2023/08/16 05:56:41;;;;;;;20.77;10.00;;;;;;;16.37;100.00;101866.44;5107974;27;20130;-78
2023/08/16 05:59:07;;;;;;;20.70;9.20;;;;;;;16.39;100.00;101878.00;5093198;28;20051;-78
2023/08/16 06:01:32;;;;;;;22.65;9.48;;;;;;;16.42;100.00;101876.91;5109929;28;20047;-78
2023/08/16 06:03:57;;;;;;;20.65;9.85;;;;;;;16.43;100.00;101871.34;5112293;28;20023;-78
2023/08/16 06:06:23;;;;;;;19.30;8.68;;;;;;;16.49;100.00;101874.56;5082136;28;20020;-78
2023/08/16 06:08:48;;;;;;;20.83;9.88;;;;;;;16.54;100.00;101873.16;5083629;28;20114;-78
2023/08/16 06:11:13;;;;;;;24.45;9.75;;;;;;;16.58;100.00;101868.34;5093200;28;20046;-78
2023/08/16 06:13:38;;;;;;;20.48;9.02;;;;;;;16.64;100.00;101864.28;5108532;27;20382;-78
2023/08/16 06:16:04;;;;;;;21.50;9.25;;;;;;;16.68;100.00;101863.03;5083106;28;20020;-78
2023/08/16 06:18:29;;;;;;;20.92;9.07;;;;;;;16.74;100.00;101868.81;5089782;28;20031;-78
2023/08/16 06:20:54;;;;;;;19.40;9.15;;;;;;;16.77;100.00;101864.97;5108704;28;20031;-78
2023/08/16 06:23:20;;;;;;;22.55;8.90;;;;;;;16.81;100.00;101871.00;5109104;28;20050;-78
2023/08/16 06:25:46;;;;;;;19.00;8.10;;;;;;;16.85;100.00;101864.31;5111045;28;20358;-78
2023/08/16 06:28:12;;;;;;;19.23;8.50;;;;;;;16.88;100.00;101862.25;5092079;28;20039;-78
2023/08/16 06:30:37;;;;;;;20.38;8.80;;;;;;;16.91;100.00;101862.00;5081325;28;20134;-78
2023/08/16 06:33:03;;;;;;;23.25;9.50;;;;;;;16.98;100.00;101870.47;5105025;28;20043;-78
2023/08/16 06:35:29;;;;;;;20.25;8.30;;;;;;;17.05;100.00;101868.97;5106717;27;20063;-78
2023/08/16 06:37:55;;;;;;;22.20;9.25;;;;;;;17.13;100.00;101871.06;5103910;28;20023;-78
2023/08/16 06:40:21;;;;;;;21.60;9.23;;;;;;;17.18;100.00;101873.38;5079647;28;20368;-78
2023/08/16 06:42:46;;;;;;;23.08;8.90;;;;;;;17.24;100.00;101867.41;5098837;28;20030;-78
2023/08/16 06:45:11;;;;;;;20.55;8.57;;;;;;;17.29;100.00;101862.44;5099002;28;20022;-79
2023/08/16 06:47:37;;;;;;;19.83;7.95;;;;;;;17.34;100.00;101864.78;5098415;28;20103;-78
2023/08/16 06:50:04;;;;;;;18.60;8.25;;;;;;;17.38;100.00;101858.94;5090233;28;20098;-78
2023/08/16 06:52:30;;;;;;;19.10;7.53;;;;;;;17.40;100.00;101865.09;5089786;28;20036;-78
2023/08/16 06:54:55;;;;;;;19.98;7.22;;;;;;;17.43;100.00;101870.25;5089007;28;20023;-78
2023/08/16 06:57:20;;;;;;;20.48;8.10;;;;;;;17.49;100.00;101884.31;5106163;28;20035;-78
2023/08/16 06:59:46;;;;;;;18.98;7.10;;;;;;;17.54;100.00;101884.78;5084898;28;20069;-79
2023/08/16 07:02:13;;;;;;;17.52;6.75;;;;;;;17.59;100.00;101882.53;5101020;28;20305;-78
2023/08/16 07:04:39;;;;;;;21.38;8.15;;;;;;;17.63;100.00;101893.00;5103778;28;20482;-77
2023/08/16 07:07:05;;;;;;;18.55;7.25;;;;;;;17.68;100.00;101887.16;5095677;27;20080;-77
2023/08/16 07:09:30;;;;;;;16.55;7.32;;;;;;;17.70;100.00;101887.91;5079212;28;20024;-86
2023/08/16 07:11:56;;;;;;;19.45;7.70;;;;;;;17.75;100.00;101884.78;5104140;28;20031;-89
2023/08/16 07:14:21;;;;;;;20.85;8.15;;;;;;;17.78;100.00;101888.06;5105098;28;20106;-83
2023/08/16 07:16:46;;;;;;;17.05;7.03;;;;;;;17.86;100.00;101878.38;5088890;28;20490;-80
2023/08/16 07:19:12;;;;;;;19.92;7.30;;;;;;;17.88;100.00;101874.53;5092584;28;20039;-77
2023/08/16 07:21:37;;;;;;;19.20;7.40;;;;;;;17.95;100.00;101878.47;5089458;28;20023;-76
2023/08/16 07:24:02;;;;;;;18.75;8.05;;;;;;;17.99;100.00;101882.66;5103927;28;20422;-75
2023/08/16 07:26:28;;;;;;;15.70;6.18;;;;;;;18.04;100.00;101886.78;5114496;28;20133;-74
2023/08/16 07:28:53;;;;;;;17.83;7.75;;;;;;;18.10;100.00;101889.00;5083970;28;20607;-74
2023/08/16 07:31:18;;;;;;;17.08;6.95;;;;;;;18.17;100.00;101895.63;5107398;28;20031;-73
2023/08/16 07:33:44;;;;;;;18.33;6.93;;;;;;;18.24;100.00;101893.19;5115391;28;20138;-75
2023/08/16 07:36:09;;;;;;;18.88;7.13;;;;;;;18.30;100.00;101887.19;5107424;28;20032;-76
2023/08/16 07:38:35;;;;;;;14.98;6.18;;;;;;;18.39;100.00;101880.06;5118642;28;20031;-74
2023/08/16 07:41:00;;;;;;;17.70;7.38;;;;;;;18.47;100.00;101888.41;5107523;28;20051;-71
2023/08/16 07:43:25;;;;;;;18.50;6.97;;;;;;;18.52;100.00;101897.00;5091252;28;20019;-74
2023/08/16 07:45:54;;;;;;;18.75;6.85;;;;;;;18.59;100.00;101902.75;5113175;28;20023;-73
2023/08/16 07:48:22;;;;;;;17.38;6.30;;;;;;;18.66;100.00;101901.22;5109003;28;20052;-73
2023/08/16 07:50:50;;;;;;;15.52;6.45;;;;;;;18.74;100.00;101909.53;5087162;28;20032;-72
2023/08/16 07:53:15;;;;;;;17.08;5.95;;;;;;;18.81;100.00;101907.94;5107841;28;20020;-75
2023/08/16 07:55:41;;;;;;;15.95;5.68;;;;;;;18.86;100.00;101900.28;5090017;28;20031;-76
2023/08/16 07:58:06;;;;;;;18.80;6.30;;;;;;;18.91;100.00;101899.00;5109468;28;20023;-73
2023/08/16 08:00:31;;;;;;;16.95;5.65;;;;;;;18.97;99.92;101903.88;5110088;28;20024;-75
2023/08/16 08:02:57;;;;;;;16.85;5.90;;;;;;;19.02;99.07;101896.13;5085223;28;20505;-77
2023/08/16 08:05:22;;;;;;;16.38;6.03;;;;;;;19.07;100.00;101915.63;5112183;28;20039;-77
2023/08/16 08:07:48;;;;;;;16.85;5.32;;;;;;;19.12;99.17;101907.03;5101357;28;20061;-73
2023/08/16 08:10:15;;;;;;;13.85;5.28;;;;;;;19.16;96.84;101913.91;5108230;28;20058;-73
2023/08/16 08:12:44;;;;;;;17.73;5.82;;;;;;;19.22;97.21;101907.88;5114741;28;20522;-73
2023/08/16 08:15:09;;;;;;;;;;;;;;;19.29;100.00;101913.63;5107255;27;20054;-74
2023/08/16 08:17:35;;;;;;;13.90;4.55;;;;;;;19.31;95.69;101923.41;5114626;27;20152;-73
2023/08/16 08:20:00;;;;;;;11.48;4.18;;;;;;;19.34;94.49;101922.22;5096118;28;20056;-73
2023/08/16 08:22:26;;;;;;;12.50;4.05;;;;;;;19.36;92.17;101915.63;5110251;28;20095;-73
2023/08/16 08:24:51;;;;;;;12.93;3.95;;;;;;;19.42;92.37;101919.66;5083481;28;20032;-74
2023/08/16 08:27:16;;;;;;;12.77;4.03;;;;;;;19.47;91.61;101916.47;5090398;28;20070;-73
2023/08/16 08:29:42;;;;;;;12.15;4.30;;;;;;;19.52;93.93;101917.78;5083224;28;20042;-75
2023/08/16 08:32:07;;;;;;;12.43;4.35;;;;;;;19.55;91.76;101920.22;5091470;28;20142;-75
2023/08/16 08:34:32;;;;;;;11.80;3.80;;;;;;;19.60;92.52;101924.38;5106021;28;20031;-74
2023/08/16 08:36:59;;;;;;;15.82;4.15;;;;;;;19.61;90.53;101917.91;5105679;27;20071;-75
2023/08/16 08:39:26;;;;;;;13.13;3.70;;;;;;;19.65;90.95;101920.22;5111937;27;20023;-74
2023/08/16 08:41:53;;;;;;;10.65;3.72;;;;;;;19.68;93.18;101927.25;5095042;28;20128;-75
2023/08/16 08:44:19;;;;;;;10.02;3.20;;;;;;;19.66;92.10;101930.09;5112581;27;20398;-74
2023/08/16 08:46:46;;;;;;;13.00;3.75;;;;;;;19.66;91.53;101927.34;5103843;27;20038;-74
2023/08/16 08:49:14;;;;;;;13.90;3.67;;;;;;;19.67;92.66;101933.69;5086435;28;20103;-78
2023/08/16 08:51:41;;;;;;;9.98;3.30;;;;;;;19.69;94.31;101937.13;5093343;28;20112;-76
2023/08/16 08:54:06;;;;;;;12.38;3.50;;;;;;;19.70;89.94;101933.41;5104687;27;20132;-76
2023/08/16 08:56:33;;;;;;;10.93;3.92;;;;;;;19.76;90.51;101930.06;5103899;28;20035;-75
2023/08/16 08:59:01;;;;;;;11.88;3.60;;;;;;;19.82;92.82;101934.97;5104858;28;20023;-76
2023/08/16 09:01:27;;;;;;;11.93;3.83;;;;;;;19.87;95.12;101940.88;5104830;27;20344;-77
2023/08/16 09:03:55;;;;;;;12.88;3.58;;;;;;;19.90;92.10;101934.25;5091754;28;20027;-77
2023/08/16 09:06:21;;;;;;;8.77;3.88;;;;;;;19.94;90.89;101940.25;5106048;28;20027;-77
2023/08/16 09:08:47;;;;;;;10.70;3.40;;;;;;;19.97;89.58;101931.78;5107349;27;20030;-76
2023/08/16 09:11:14;;;;;;;10.27;3.45;;;;;;;20.00;87.45;101936.94;5090254;28;20031;-77
2023/08/16 09:13:40;;;;;;;6.38;2.83;;;;;;;20.06;91.21;101941.84;5110338;28;20114;-76
2023/08/16 09:16:05;;;;;;;11.38;3.50;;;;;;;20.12;88.40;101943.97;5092821;28;20471;-76
2023/08/16 09:18:30;;;;;;;12.10;3.47;;;;;;;20.17;86.91;101949.81;5111182;28;20501;-77
2023/08/16 09:20:58;;;;;;;13.40;3.42;;;;;;;20.22;87.46;101943.91;5091500;28;20034;-77
2023/08/16 09:23:23;;;;;;;9.48;3.25;;;;;;;20.23;87.79;101935.56;5111102;28;20858;-76
2023/08/16 09:25:50;;;;;;;12.55;3.63;;;;;;;20.27;89.48;101932.56;5091869;28;20043;-76
2023/08/16 09:28:16;;;;;;;8.25;3.00;;;;;;;20.25;85.16;101941.75;5106488;28;20035;-77
2023/08/16 09:30:42;;;;;;;12.25;3.65;;;;;;;20.30;87.49;101943.19;5080001;28;20024;-76
2023/08/16 09:33:10;;;;;;;8.95;3.90;;;;;;;20.30;85.42;101937.72;5092021;28;20023;-76
2023/08/16 09:35:44;;;;;;;11.90;4.38;;;;;;;20.37;91.42;101938.84;5092435;28;20039;-76
2023/08/16 09:38:13;;;;;;;14.48;4.10;;;;;;;20.41;85.89;101940.22;5112037;27;20066;-75
2023/08/16 09:40:49;;;;;;;15.80;4.22;;;;;;;20.46;87.37;101946.13;5107069;28;20066;-75
2023/08/16 09:43:15;;;;;;;13.07;4.13;;;;;;;20.52;86.52;101944.66;5093554;28;20039;-75
2023/08/16 09:45:41;;;;;;;12.52;4.13;;;;;;;20.54;87.56;101945.34;5108483;28;20460;-73
2023/08/16 09:48:08;;;;;;;12.02;4.38;;;;;;;20.61;89.10;101941.00;5089285;28;20035;-76
2023/08/16 09:50:35;;;;;;;15.95;5.28;;;;;;;20.67;91.78;101939.56;5107589;28;20035;-76
2023/08/16 09:53:04;;;;;;;17.30;4.95;;;;;;;20.72;88.35;101937.25;5078584;28;20395;-76
2023/08/16 09:55:35;;;;;;;17.30;5.07;;;;;;;20.77;86.96;101930.28;5102791;28;20480;-76
2023/08/16 09:58:01;;;;;;;16.08;4.93;;;;;;;20.79;86.51;101930.16;5100834;28;20027;-77
2023/08/16 10:00:30;;;;;;;16.58;4.63;;;;;;;20.86;88.00;101935.88;5104539;28;20447;-76
2023/08/16 10:02:57;;;;;;;18.20;4.72;;;;;;;20.86;88.35;101936.72;5087344;28;20023;-75
2023/08/16 10:05:25;;;;;;;13.30;3.92;;;;;;;20.88;87.15;101929.25;5099726;28;20058;-76
2023/08/16 10:07:52;;;;;;;12.88;4.82;;;;;;;20.87;86.79;101930.25;5086506;28;20024;-76
2023/08/16 10:10:18;;;;;;;20.77;5.40;;;;;;;20.87;88.59;101929.41;5083569;27;20030;-80
2023/08/16 10:12:45;;;;;;;11.65;4.50;;;;;;;20.88;88.07;101923.78;5081395;28;20095;-79
2023/08/16 10:15:11;;;;;;;15.88;4.60;;;;;;;20.88;89.85;101918.31;5112619;28;20023;-80
2023/08/16 10:17:41;;;;;;;14.85;4.68;;;;;;;20.90;87.13;101929.09;5113464;28;20026;-79
2023/08/16 10:20:16;;;;;;;20.00;5.07;;;;;;;20.94;88.27;101922.31;5095527;28;20074;-79
2023/08/16 10:22:43;;;;;;;11.75;3.95;;;;;;;20.96;88.02;101914.78;5090016;28;20020;-79
2023/08/16 10:25:16;;;;;;;14.77;4.95;;;;;;;20.97;90.05;101922.00;5112951;28;20471;-80
2023/08/16 10:27:44;;;;;;;15.15;5.10;;;;;;;20.98;84.70;101934.63;5093938;28;20084;-80
2023/08/16 10:30:20;;;;;;;17.58;5.55;;;;;;;20.99;86.41;101930.03;5085948;28;20139;-80
2023/08/16 10:32:47;;;;;;;18.25;6.30;;;;;;;21.00;84.18;101926.28;5092752;28;20062;-79
2023/08/16 10:35:13;;;;;;;16.02;4.88;;;;;;;21.07;86.76;101924.63;5095352;28;20056;-80
2023/08/16 10:37:39;;;;;;;17.50;5.22;;;;;;;21.11;88.50;101928.78;5113020;28;20028;-80
2023/08/16 10:40:18;;;;;;;11.25;3.70;;;;;;;21.14;87.62;101920.25;5083423;28;20026;-79
2023/08/16 10:42:56;;;;;;;13.20;4.53;;;;;;;21.19;86.91;101922.56;5112846;28;20054;-79
2023/08/16 10:45:26;;;;;;;24.45;6.03;;;;;;;21.22;83.83;101919.50;5111285;28;20027;-79
2023/08/16 10:47:52;;;;;;;15.25;4.93;;;;;;;21.29;89.95;101913.25;5104039;28;20020;-80
2023/08/16 10:50:18;;;;;;;14.00;5.35;;;;;;;21.32;85.82;101913.94;5111312;28;20102;-80
2023/08/16 10:52:43;;;;;;;13.77;4.80;;;;;;;21.33;83.54;101910.19;5092573;28;20031;-79
2023/08/16 10:55:09;;;;;;;15.80;5.70;;;;;;;21.32;83.69;101908.47;5112340;28;20024;-79
2023/08/16 10:57:34;;;;;;;16.90;5.70;;;;;;;21.32;83.15;101908.47;5093032;28;20027;-79
2023/08/16 11:00:09;;;;;;;15.82;5.43;;;;;;;21.34;84.42;101911.91;5117914;28;20087;-80
2023/08/16 11:02:40;;;;;;;17.45;5.78;;;;;;;21.36;84.51;101918.91;5136846;27;20166;-80
2023/08/16 11:05:15;;;;;;;14.48;5.57;;;;;;;21.40;85.43;101914.00;5135591;27;20100;-80
2023/08/16 11:07:43;;;;;;;17.55;5.13;;;;;;;21.44;86.06;101920.88;5124062;27;20097;-79